LGAVDTTJ

Guest
Details From LGAV - Athens Intl Airport Elefterios Venizel
To DTTJ - Djerba Zarzis
Flight Number -
Tags Generated
Created
Modified
Stats Distance 686 nm / 1,271 km
Max Altitude 0 ft / 0 m
Waypoints 5
Social Downloads 1
Likes 0
Share VATSIM

Download

Looking for another format? Having issues loading an existing format? Contact us
Advertisement - Login to hide

Notes

Generated

Route

LGAV ILL01 LM009 JER DTTJ

ID Type Via Altitude Latitude Longitude Leg Dist Tot Dist Heading (true) Name
O LGAV APT - 0 ft / 0 m 37.92101˚ 23.91920˚ - 0 nm - -
ILL01 FIX - 0 ft / 0 m 36.76667˚ 19.00000˚ 244 nm 244 nm 255° / 252° -
LM009 FIX - 0 ft / 0 m 35.72806˚ 14.62974˚ 220 nm 465 nm 255° / 252° -
JER NDB - 0 ft / 0 m 33.87803˚ 10.77264˚ 220 nm 685 nm 241° / 239° ZARZIS NDB
O DTTJ APT - 0 ft / 0 m 33.87503˚ 10.76034˚ 0 nm 686 nm 254° / 254° -

Altitude Profile

Advertisement - Login to hide

Weather


0- 5 10 15 20 25 30 35+ Temperature / ° C

Clouds and Precipitation
Forecast for 2017-12-12 12:00 UTC. Updated an hour ago

Ground ~20,000 ft ~40,000 ft Winds

LGAV

Details ICAO LGAV (ATH)
Name Athens Intl Airport Elefterios Venizel
Region Greece
Timezone Europe/Athens (UTC+2.0)
Stats Elevation 308 ft / 94 m (AMSL)
Location 37.936357° 23.944470°
Runways 2
Magnetic Variation 4.483° E

METAR

LGAV 121020Z 20009KT 9999 FEW035 18/08 Q1023 NOSIG

Decode

TAF

TAF TAF LGAV 120500Z 1206/1306 24005KT 9999 FEW035

Decode

Departure Runways

ID Width Length Bearing (true) Bearing (mag) Surface Threshold Offset Overrun Length
03L 148 ft / 45 m 12,474 ft / 3,802 m 36.51° 32.03° Asphalt 984 ft / 300 m 393 ft / 120 m
03R 148 ft / 45 m 13,131 ft / 4,002 m 36.52° 32.04° Asphalt 984 ft / 300 m 393 ft / 120 m
21L 148 ft / 45 m 13,131 ft / 4,002 m 216.54° 212.06° Asphalt 984 ft / 300 m 393 ft / 120 m
21R 148 ft / 45 m 12,474 ft / 3,802 m 216.53° 212.05° Asphalt 984 ft / 300 m 393 ft / 120 m

DTTJ

Details ICAO DTTJ (DJE)
Name Djerba Zarzis
Region Tunisia
Timezone Africa/Tunis (UTC+1.0)
Stats Elevation 18 ft / 5 m (AMSL)
Location 33.875447° 10.777153°
Runways 1
Magnetic Variation 2.327° E

METAR

DTTJ 121030Z 14009KT CAVOK 17/03 Q1018 NOSIG

Decode

TAF

TAF DTTJ 120530Z 1206/1306 14008KT 6000 NSC= TAF DTTZ 120530Z 1206/1306 10012KT CAVOK

Decode

Destination Runways

ID Width Length Bearing (true) Bearing (mag) Surface Threshold Offset Overrun Length
09 148 ft / 45 m 10,191 ft / 3,106 m 88.28° 85.95° Asphalt 0 ft / 0 m 197 ft / 60 m
27 148 ft / 45 m 10,191 ft / 3,106 m 268.30° 265.97° Asphalt 0 ft / 0 m 197 ft / 60 m

Approach Navaids

Runway Type Ident Frequency Range Bearing (true) Bearing (mag) Slope Elevation
09 Localiser JAZ 109.50 MHz 18 nm / 33 km 88.31° 85.98° - 18 ft / 5 m (AMSL)
09 Glidescope JAZ 109.50 MHz 10 nm / 19 km 88.29° 85.96° 3.00° 18 ft / 5 m (AMSL)